createdAt,value
2022-08-28T00:00:17.383Z,4.87
2022-08-28T00:02:45.728Z,5.03
2022-08-28T00:05:14.076Z,4.40
2022-08-28T00:07:45.532Z,4.90
2022-08-28T00:10:16.962Z,5.03
2022-08-28T00:12:45.297Z,4.80
2022-08-28T00:15:16.497Z,4.37
2022-08-28T00:17:44.079Z,4.33
2022-08-28T00:20:12.315Z,4.63
2022-08-28T00:22:40.348Z,5.13
2022-08-28T00:25:08.886Z,5.50
2022-08-28T00:27:55.150Z,4.53
2022-08-28T00:30:25.778Z,4.40
2022-08-28T00:32:54.361Z,4.47
2022-08-28T00:35:23.737Z,4.70
2022-08-28T00:37:50.944Z,5.23
2022-08-28T00:40:28.468Z,5.17
2022-08-28T00:42:58.168Z,4.20
2022-08-28T00:45:25.544Z,4.97
2022-08-28T00:47:52.928Z,4.90
2022-08-28T00:50:23.327Z,5.10
2022-08-28T00:52:55.276Z,4.63
2022-08-28T00:55:24.882Z,4.43
2022-08-28T00:57:55.208Z,4.73
2022-08-28T01:00:37.391Z,5.17
2022-08-28T01:03:05.886Z,4.17
2022-08-28T01:05:35.007Z,4.70
2022-08-28T01:08:04.447Z,4.23
2022-08-28T01:10:35.008Z,5.10
2022-08-28T01:13:03.003Z,4.67
2022-08-28T01:15:35.137Z,4.33
2022-08-28T01:18:08.301Z,5.23
2022-08-28T01:20:38.085Z,4.23
2022-08-28T01:23:33.864Z,4.57
2022-08-28T01:26:00.626Z,5.17
2022-08-28T01:28:28.140Z,4.53
2022-08-28T01:30:55.266Z,4.53
2022-08-28T01:33:28.052Z,4.67
2022-08-28T01:35:55.096Z,4.57
2022-08-28T01:38:26.789Z,5.03
2022-08-28T01:40:55.010Z,4.70
2022-08-28T01:43:26.278Z,4.90
2022-08-28T01:45:57.523Z,4.23
2022-08-28T01:48:26.159Z,5.03
2022-08-28T01:50:52.988Z,4.50
2022-08-28T01:53:24.961Z,5.07
2022-08-28T01:55:53.772Z,4.73
2022-08-28T01:58:21.667Z,4.53
2022-08-28T02:00:48.390Z,4.63
2022-08-28T02:03:15.070Z,5.40
2022-08-28T02:05:41.962Z,5.20
2022-08-28T02:08:08.994Z,5.43
2022-08-28T02:10:38.278Z,4.97
2022-08-28T02:13:06.860Z,4.77
2022-08-28T02:15:35.375Z,4.90
2022-08-28T02:18:02.793Z,4.80
2022-08-28T02:20:30.412Z,5.37
2022-08-28T02:22:58.086Z,5.03
2022-08-28T02:25:25.827Z,5.00
2022-08-28T02:27:52.595Z,4.80
2022-08-28T02:30:19.500Z,4.93
2022-08-28T02:32:46.711Z,5.23
2022-08-28T02:35:16.751Z,4.37
2022-08-28T02:37:44.510Z,4.80
2022-08-28T02:40:15.538Z,4.73
2022-08-28T02:42:43.085Z,5.33
2022-08-28T02:45:11.758Z,5.40
2022-08-28T02:47:39.994Z,5.13
2022-08-28T02:50:08.117Z,5.70
2022-08-28T02:52:35.596Z,5.40
2022-08-28T02:55:02.231Z,5.27
2022-08-28T02:57:30.309Z,5.17
2022-08-28T02:59:56.969Z,5.27
2022-08-28T03:02:24.020Z,4.87
2022-08-28T03:04:52.552Z,4.63
2022-08-28T03:07:19.880Z,4.97
2022-08-28T03:09:46.623Z,5.20
2022-08-28T03:12:13.473Z,5.03
2022-08-28T03:14:40.475Z,5.53
2022-08-28T03:17:07.532Z,5.27
2022-08-28T03:19:34.440Z,4.53
2022-08-28T03:22:01.230Z,4.87
2022-08-28T03:24:27.934Z,4.73
2022-08-28T03:26:54.993Z,4.40
2022-08-28T03:29:21.645Z,4.80
2022-08-28T03:31:48.294Z,5.57
2022-08-28T03:34:14.890Z,4.73
2022-08-28T03:36:41.530Z,4.10
2022-08-28T03:39:08.167Z,4.70
2022-08-28T03:41:34.977Z,4.43
2022-08-28T03:44:02.200Z,4.93
2022-08-28T03:46:32.890Z,4.90
2022-08-28T03:49:01.475Z,4.33
2022-08-28T03:51:30.921Z,4.70
2022-08-28T03:53:59.581Z,4.60
2022-08-28T03:56:28.140Z,4.57
2022-08-28T03:58:57.697Z,4.83
2022-08-28T04:01:25.264Z,4.87
2022-08-28T04:03:51.949Z,5.03
2022-08-28T04:06:19.886Z,5.13
2022-08-28T04:08:47.432Z,4.70
2022-08-28T04:11:14.373Z,4.40
2022-08-28T04:13:42.062Z,4.73
2022-08-28T04:16:11.737Z,4.97
2022-08-28T04:18:40.465Z,4.30
2022-08-28T04:21:13.374Z,5.03
2022-08-28T04:23:45.223Z,4.97
2022-08-28T04:26:15.461Z,4.97
2022-08-28T04:28:42.629Z,5.40
2022-08-28T04:31:09.412Z,5.13
2022-08-28T04:33:37.218Z,4.97
2022-08-28T04:36:06.248Z,5.37
2022-08-28T04:38:33.025Z,5.13
2022-08-28T04:41:02.790Z,5.80
2022-08-28T04:43:29.426Z,5.20
2022-08-28T04:45:56.683Z,6.20
2022-08-28T04:48:23.674Z,5.83
2022-08-28T04:50:50.785Z,5.30
2022-08-28T04:53:20.122Z,5.10
2022-08-28T04:55:54.960Z,5.97
2022-08-28T04:58:23.798Z,5.63
2022-08-28T05:00:53.115Z,5.90
2022-08-28T05:03:20.781Z,5.27
2022-08-28T05:05:49.929Z,5.73
2022-08-28T05:08:18.756Z,6.23
2022-08-28T05:10:47.059Z,5.20
2022-08-28T05:13:18.378Z,5.57
2022-08-28T05:15:47.789Z,5.70
2022-08-28T05:18:16.263Z,5.93
2022-08-28T05:20:45.442Z,6.00
2022-08-28T05:23:13.912Z,6.17
2022-08-28T05:25:47.558Z,6.03
2022-08-28T05:28:19.158Z,5.80
2022-08-28T05:30:46.270Z,5.60
2022-08-28T05:33:14.916Z,5.70
2022-08-28T05:35:45.382Z,6.43
2022-08-28T05:38:13.975Z,5.40
2022-08-28T05:40:49.173Z,5.67
2022-08-28T05:43:17.343Z,5.67
2022-08-28T05:45:44.004Z,5.60
2022-08-28T05:48:11.958Z,5.07
2022-08-28T05:50:39.361Z,5.77
2022-08-28T05:53:10.403Z,5.03
2022-08-28T05:55:40.821Z,4.60
2022-08-28T05:58:26.219Z,5.23
2022-08-28T06:00:52.980Z,5.10
2022-08-28T06:03:19.708Z,5.10
2022-08-28T06:05:46.357Z,5.17
2022-08-28T06:08:13.430Z,5.43
2022-08-28T06:10:44.782Z,5.33
2022-08-28T06:13:15.018Z,5.03
2022-08-28T06:15:46.011Z,5.37
2022-08-28T06:18:14.103Z,5.10
2022-08-28T06:20:46.288Z,5.07
2022-08-28T06:23:17.301Z,5.40
2022-08-28T06:25:51.904Z,5.10
2022-08-28T06:28:21.394Z,5.80
2022-08-28T06:31:17.821Z,6.27
2022-08-28T06:33:36.063Z,5.67
2022-08-28T06:36:05.066Z,5.80
2022-08-28T06:38:31.885Z,6.53
2022-08-28T06:40:59.105Z,6.30
2022-08-28T06:43:28.409Z,6.10
2022-08-28T06:45:57.174Z,5.60
2022-08-28T06:48:28.022Z,5.30
2022-08-28T06:50:56.236Z,5.50
2022-08-28T06:53:25.703Z,5.80
2022-08-28T06:56:00.806Z,5.70
2022-08-28T06:58:28.118Z,7.07
2022-08-28T07:01:08.031Z,5.90
2022-08-28T07:03:35.078Z,6.80
2022-08-28T07:06:04.302Z,6.30
2022-08-28T07:08:32.680Z,6.93
2022-08-28T07:11:00.311Z,6.13
2022-08-28T07:13:29.173Z,6.47
2022-08-28T07:15:59.599Z,7.33
2022-08-28T07:18:26.339Z,5.90
2022-08-28T07:20:58.185Z,5.97
2022-08-28T07:23:25.393Z,7.20
2022-08-28T07:25:52.786Z,6.07
2022-08-28T07:28:19.896Z,6.43
2022-08-28T07:30:56.568Z,7.23
2022-08-28T07:33:23.419Z,6.30
2022-08-28T07:35:50.503Z,5.97
2022-08-28T07:38:17.329Z,5.57
2022-08-28T07:40:46.982Z,6.60
2022-08-28T07:43:32.220Z,6.40
2022-08-28T07:46:00.880Z,5.93
2022-08-28T07:48:27.764Z,5.80
2022-08-28T07:50:54.676Z,5.20
2022-08-28T07:53:21.903Z,5.60
2022-08-28T07:55:52.641Z,5.23
2022-08-28T07:58:20.599Z,5.33
2022-08-28T08:00:47.689Z,5.27
2022-08-28T08:03:15.009Z,5.30
2022-08-28T08:05:41.756Z,5.20
2022-08-28T08:08:08.531Z,4.70
2022-08-28T08:10:35.250Z,5.03
2022-08-28T08:13:02.283Z,4.90
2022-08-28T08:15:31.331Z,4.83
2022-08-28T08:17:58.225Z,5.30
2022-08-28T08:20:24.870Z,5.00
2022-08-28T08:22:52.005Z,5.63
2022-08-28T08:25:18.834Z,4.67
2022-08-28T08:27:47.122Z,5.30
2022-08-28T08:30:14.452Z,4.93
2022-08-28T08:32:41.193Z,5.23
2022-08-28T08:35:08.415Z,5.07
2022-08-28T08:37:35.068Z,5.30
2022-08-28T08:40:01.957Z,5.17
2022-08-28T08:42:32.013Z,5.23
2022-08-28T08:45:04.088Z,4.77
2022-08-28T08:47:40.542Z,5.63
2022-08-28T08:50:14.050Z,5.53
2022-08-28T08:52:46.427Z,5.07
2022-08-28T08:55:32.025Z,5.43
2022-08-28T08:58:09.751Z,5.97
2022-08-28T09:00:55.765Z,4.90
2022-08-28T09:03:27.628Z,5.17
2022-08-28T09:06:01.894Z,4.93
2022-08-28T09:08:47.926Z,5.07
2022-08-28T09:11:31.741Z,5.13
2022-08-28T09:14:08.402Z,5.40
2022-08-28T09:16:44.392Z,4.33
2022-08-28T09:19:15.103Z,5.40
2022-08-28T09:21:43.687Z,4.53
2022-08-28T09:24:16.674Z,5.37
2022-08-28T09:27:02.294Z,5.17
2022-08-28T09:29:30.646Z,5.53
2022-08-28T09:31:58.319Z,5.20
2022-08-28T09:34:38.118Z,5.63
2022-08-28T09:37:08.516Z,5.10
2022-08-28T09:39:38.296Z,6.00
2022-08-28T09:42:32.574Z,5.03
2022-08-28T09:45:18.580Z,5.77
2022-08-28T09:47:51.301Z,5.00
2022-08-28T09:50:27.463Z,5.47
2022-08-28T09:52:57.473Z,5.90
2022-08-28T09:55:29.833Z,6.47
2022-08-28T09:57:56.917Z,5.73
2022-08-28T10:00:23.829Z,5.43
2022-08-28T10:03:07.569Z,5.83
2022-08-28T10:06:08.924Z,6.03
2022-08-28T10:09:09.264Z,5.47
2022-08-28T10:11:58.606Z,5.20
2022-08-28T10:14:38.205Z,5.80
2022-08-28T10:17:29.196Z,5.40
2022-08-28T10:19:59.398Z,5.63
2022-08-28T10:23:01.620Z,5.27
2022-08-28T10:25:38.981Z,5.30
2022-08-28T10:28:33.241Z,5.47
2022-08-28T10:31:03.467Z,5.20
2022-08-28T10:33:39.771Z,5.00
2022-08-28T10:36:30.364Z,4.73
2022-08-28T10:39:31.843Z,5.60
2022-08-28T10:42:03.094Z,5.80
2022-08-28T10:44:33.089Z,5.80
2022-08-28T10:47:01.589Z,6.03
2022-08-28T10:49:41.632Z,5.80
2022-08-28T10:52:26.613Z,7.90
2022-08-28T10:55:06.994Z,6.33
2022-08-28T10:57:40.076Z,5.50
2022-08-28T11:00:19.693Z,5.90
2022-08-28T11:02:51.546Z,5.13
2022-08-28T11:05:23.326Z,5.37
2022-08-28T11:07:54.997Z,5.55
2022-08-28T11:10:24.735Z,5.17
2022-08-28T11:12:52.800Z,5.10
2022-08-28T11:15:47.380Z,6.10
2022-08-28T11:18:13.977Z,5.22
2022-08-28T11:20:43.362Z,5.87
2022-08-28T11:23:22.237Z,5.40
2022-08-28T11:25:58.546Z,5.47
2022-08-28T11:28:25.722Z,5.53
2022-08-28T11:30:58.244Z,4.85
2022-08-28T11:33:41.073Z,4.75
2022-08-28T11:36:34.027Z,5.32
2022-08-28T11:39:05.725Z,5.85
2022-08-28T11:41:39.084Z,5.43
2022-08-28T11:44:09.150Z,5.55
2022-08-28T11:46:38.215Z,5.18
2022-08-28T11:49:29.213Z,5.28
2022-08-28T11:52:29.751Z,5.28
2022-08-28T11:55:05.091Z,5.55
2022-08-28T11:57:50.262Z,6.05
2022-08-28T12:00:22.409Z,5.22
2022-08-28T12:02:58.652Z,5.75
2022-08-28T12:05:31.274Z,4.82
2022-08-28T12:08:02.758Z,5.05
2022-08-28T12:10:34.590Z,5.47
2022-08-28T12:13:02.547Z,5.38
2022-08-28T12:15:29.765Z,5.28
2022-08-28T12:18:05.723Z,6.13
2022-08-28T12:21:25.554Z,5.55
2022-08-28T12:23:59.121Z,5.50
2022-08-28T12:26:45.423Z,5.35
2022-08-28T12:29:27.166Z,4.60
2022-08-28T12:32:18.865Z,4.85
2022-08-28T12:34:57.472Z,4.95
2022-08-28T12:37:51.399Z,4.78
2022-08-28T12:40:34.684Z,4.90
2022-08-28T12:43:07.468Z,4.97
2022-08-28T12:45:42.735Z,4.97
2022-08-28T12:48:26.146Z,5.68
2022-08-28T12:51:05.540Z,5.20
2022-08-28T12:53:44.430Z,4.90
2022-08-28T12:56:13.384Z,4.82
2022-08-28T12:58:42.028Z,4.55
2022-08-28T13:01:29.251Z,5.15
2022-08-28T13:04:19.521Z,4.72
2022-08-28T13:06:46.322Z,4.78
2022-08-28T13:09:18.935Z,5.10
2022-08-28T13:11:49.175Z,5.88
2022-08-28T13:14:45.754Z,5.05
2022-08-28T13:17:14.853Z,5.50
2022-08-28T13:19:42.572Z,4.80
2022-08-28T13:22:32.880Z,5.70
2022-08-28T13:25:01.794Z,5.53
2022-08-28T13:27:28.832Z,4.75
2022-08-28T13:30:04.423Z,5.35
2022-08-28T13:32:38.893Z,5.32
2022-08-28T13:35:17.417Z,5.38
2022-08-28T13:37:53.236Z,4.72
2022-08-28T13:43:17.628Z,4.72
2022-08-28T13:45:46.472Z,4.40
2022-08-28T13:48:34.604Z,5.43
2022-08-28T13:51:15.271Z,5.28
2022-08-28T13:53:48.233Z,5.00
2022-08-28T13:56:16.949Z,4.88
2022-08-28T13:58:44.620Z,4.55
2022-08-28T14:01:17.955Z,4.47
2022-08-28T14:03:49.444Z,4.68
2022-08-28T14:06:18.461Z,4.60
2022-08-28T14:08:46.781Z,4.30
2022-08-28T14:11:15.469Z,5.45
2022-08-28T14:13:47.089Z,4.57
2022-08-28T14:16:21.997Z,4.43
2022-08-28T14:18:48.817Z,4.75
2022-08-28T14:21:15.790Z,4.72
2022-08-28T14:23:42.442Z,4.60
2022-08-28T14:26:09.118Z,4.32
2022-08-28T14:28:35.925Z,4.80
2022-08-28T14:31:05.578Z,4.30
2022-08-28T14:33:32.385Z,4.70
2022-08-28T14:36:03.971Z,4.47
2022-08-28T14:38:30.644Z,4.57
2022-08-28T14:40:57.417Z,4.55
2022-08-28T14:43:24.132Z,4.55
2022-08-28T14:45:50.944Z,4.50
2022-08-28T14:48:18.936Z,4.40
2022-08-28T14:50:48.291Z,4.47
2022-08-28T14:53:16.306Z,4.38
2022-08-28T14:55:46.302Z,4.22
2022-08-28T14:58:13.800Z,4.35
2022-08-28T15:00:48.016Z,4.68
2022-08-28T15:03:16.034Z,4.47
2022-08-28T15:05:42.968Z,4.97
2022-08-28T15:08:12.046Z,4.40
2022-08-28T15:10:40.874Z,4.32
2022-08-28T15:13:10.112Z,5.10
2022-08-28T15:15:42.618Z,4.70
2022-08-28T15:18:11.085Z,4.15
2022-08-28T15:20:46.227Z,4.35
2022-08-28T15:23:14.684Z,4.10
2022-08-28T15:25:41.936Z,4.75
2022-08-28T15:28:08.903Z,4.72
2022-08-28T15:30:36.760Z,4.82
2022-08-28T15:33:03.763Z,4.95
2022-08-28T15:35:30.448Z,4.40
2022-08-28T15:37:57.230Z,5.65
2022-08-28T15:40:42.483Z,4.80
2022-08-28T15:43:09.231Z,4.32
2022-08-28T15:45:37.878Z,4.60
2022-08-28T15:48:05.189Z,4.95
2022-08-28T15:50:32.023Z,5.07
2022-08-28T15:52:58.979Z,4.82
2022-08-28T15:55:26.214Z,5.07
2022-08-28T15:57:53.442Z,4.60
2022-08-28T16:00:20.397Z,5.15
2022-08-28T16:02:47.119Z,5.28
2022-08-28T16:05:13.855Z,5.20
2022-08-28T16:07:40.491Z,5.45
2022-08-28T16:10:08.872Z,5.13
2022-08-28T16:12:39.675Z,5.00
2022-08-28T16:15:09.711Z,4.57
2022-08-28T16:17:36.493Z,5.53
2022-08-28T16:20:12.226Z,4.53
2022-08-28T16:22:40.221Z,5.80
2022-08-28T16:25:07.679Z,6.00
2022-08-28T16:27:34.399Z,4.80
2022-08-28T16:30:02.890Z,4.88
2022-08-28T16:32:30.524Z,5.25
2022-08-28T16:34:58.316Z,4.65
2022-08-28T16:37:27.140Z,5.40
2022-08-28T16:40:09.579Z,5.68
2022-08-28T16:42:36.472Z,5.67
2022-08-28T16:45:04.455Z,5.57
2022-08-28T16:47:33.132Z,6.50
2022-08-28T16:50:08.692Z,6.50
2022-08-28T16:52:36.028Z,7.17
2022-08-28T16:55:04.017Z,8.17
2022-08-28T16:57:31.013Z,7.93
2022-08-28T16:59:57.668Z,7.10
2022-08-28T17:02:26.550Z,6.33
2022-08-28T17:04:54.946Z,5.87
2022-08-28T17:07:21.990Z,5.60
2022-08-28T17:09:48.720Z,6.03
2022-08-28T17:12:16.762Z,6.00
2022-08-28T17:14:44.019Z,5.57
2022-08-28T17:17:11.074Z,5.27
2022-08-28T17:19:38.547Z,5.50
2022-08-28T17:22:27.234Z,5.20
2022-08-28T17:24:55.060Z,5.87
2022-08-28T17:27:23.566Z,5.43
2022-08-28T17:29:51.286Z,4.90
2022-08-28T17:32:18.114Z,5.73
2022-08-28T17:34:45.283Z,5.37
2022-08-28T17:37:12.408Z,5.40
2022-08-28T17:39:39.092Z,4.93
2022-08-28T17:42:06.253Z,4.60
2022-08-28T17:44:33.215Z,4.93
2022-08-28T17:47:01.034Z,4.93
2022-08-28T17:49:27.842Z,6.27
2022-08-28T17:51:54.464Z,5.57
2022-08-28T17:54:24.275Z,5.43
2022-08-28T17:56:55.343Z,6.17
2022-08-28T17:59:25.061Z,5.47
2022-08-28T18:01:51.916Z,5.80
2022-08-28T18:04:24.203Z,5.43
2022-08-28T18:06:54.730Z,5.63
2022-08-28T18:09:22.462Z,6.37
2022-08-28T18:11:49.273Z,6.20
2022-08-28T18:14:17.021Z,6.10
2022-08-28T18:16:43.763Z,5.63
2022-08-28T18:19:11.197Z,6.30
2022-08-28T18:21:39.261Z,6.33
2022-08-28T18:24:07.203Z,5.70
2022-08-28T18:26:34.152Z,5.70
2022-08-28T18:29:01.208Z,5.23
2022-08-28T18:31:28.620Z,5.57
2022-08-28T18:33:55.400Z,5.23
2022-08-28T18:36:23.266Z,5.60
2022-08-28T18:38:52.799Z,5.03
2022-08-28T18:41:20.415Z,5.83
2022-08-28T18:43:50.973Z,5.40
2022-08-28T18:46:17.800Z,5.43
2022-08-28T18:48:44.486Z,5.80
2022-08-28T18:51:14.679Z,5.73
2022-08-28T18:53:48.830Z,5.70
2022-08-28T18:56:16.623Z,6.10
2022-08-28T18:58:44.265Z,5.90
2022-08-28T19:01:10.936Z,5.60
2022-08-28T19:03:38.093Z,6.03
2022-08-28T19:06:06.296Z,6.03
2022-08-28T19:08:35.448Z,6.13
2022-08-28T19:11:07.680Z,5.47
2022-08-28T19:13:34.619Z,5.40
2022-08-28T19:16:01.492Z,5.80
2022-08-28T19:18:29.987Z,5.87
2022-08-28T19:21:09.312Z,5.40
2022-08-28T19:23:36.129Z,5.50
2022-08-28T19:26:03.109Z,5.67
2022-08-28T19:28:29.798Z,6.37
2022-08-28T19:30:56.545Z,5.50
2022-08-28T19:33:23.451Z,5.93
2022-08-28T19:35:50.349Z,6.43
2022-08-28T19:38:17.186Z,6.40
2022-08-28T19:40:45.576Z,6.30
2022-08-28T19:43:16.664Z,6.40
2022-08-28T19:45:45.038Z,6.03
2022-08-28T19:48:12.181Z,5.70
2022-08-28T19:50:39.273Z,5.80
2022-08-28T19:53:06.182Z,5.90
2022-08-28T19:55:33.193Z,5.47
2022-08-28T19:57:59.919Z,5.20
2022-08-28T20:00:31.986Z,5.00
2022-08-28T20:02:59.456Z,5.20
2022-08-28T20:05:26.291Z,5.73
2022-08-28T20:07:53.357Z,6.10
2022-08-28T20:10:21.442Z,5.90
2022-08-28T20:12:48.864Z,5.50
2022-08-28T20:15:18.022Z,5.77
2022-08-28T20:17:49.325Z,5.33
2022-08-28T20:20:18.683Z,5.33
2022-08-28T20:22:45.467Z,6.03
2022-08-28T20:25:12.428Z,5.23
2022-08-28T20:27:41.557Z,5.50
2022-08-28T20:30:11.132Z,6.07
2022-08-28T20:32:40.288Z,5.30
2022-08-28T20:35:09.606Z,5.50
2022-08-28T20:37:45.495Z,5.33
2022-08-28T20:40:18.703Z,5.40
2022-08-28T20:42:46.467Z,6.07
2022-08-28T20:45:15.204Z,5.50
2022-08-28T20:47:42.244Z,5.90
2022-08-28T20:50:09.348Z,5.33
2022-08-28T20:52:36.106Z,6.10
2022-08-28T20:55:03.722Z,5.47
2022-08-28T20:57:30.458Z,5.80
2022-08-28T20:59:57.243Z,4.87
2022-08-28T21:02:26.610Z,5.67
2022-08-28T21:04:54.475Z,6.00
2022-08-28T21:07:23.732Z,5.63
2022-08-28T21:10:05.129Z,5.07
2022-08-28T21:12:33.312Z,5.37
2022-08-28T21:15:00.161Z,5.67
2022-08-28T21:17:29.587Z,5.30
2022-08-28T21:20:09.391Z,5.50
2022-08-28T21:22:37.428Z,5.63
2022-08-28T21:25:07.143Z,5.40
2022-08-28T21:27:34.910Z,4.90
2022-08-28T21:30:02.720Z,5.47
2022-08-28T21:32:30.595Z,5.60
2022-08-28T21:34:57.350Z,5.73
2022-08-28T21:37:24.078Z,6.33
2022-08-28T21:39:50.857Z,5.80
2022-08-28T21:42:17.558Z,5.53
2022-08-28T21:44:48.659Z,5.23
2022-08-28T21:47:21.460Z,6.03
2022-08-28T21:49:50.199Z,5.60
2022-08-28T21:52:18.352Z,5.80
2022-08-28T21:54:45.032Z,5.57
2022-08-28T21:57:11.837Z,5.40
2022-08-28T21:59:39.003Z,5.37
2022-08-28T22:02:06.283Z,5.57
2022-08-28T22:04:33.442Z,4.97
2022-08-28T22:07:00.066Z,5.33
2022-08-28T22:09:26.900Z,5.27
2022-08-28T22:11:54.012Z,5.57
2022-08-28T22:14:21.087Z,5.60
2022-08-28T22:16:47.885Z,5.40
2022-08-28T22:19:14.628Z,6.23
2022-08-28T22:21:59.775Z,5.10
2022-08-28T22:24:26.452Z,5.00
2022-08-28T22:26:57.299Z,5.30
2022-08-28T22:29:24.438Z,5.07
2022-08-28T22:31:51.154Z,5.33
2022-08-28T22:34:17.847Z,5.87
2022-08-28T22:36:44.606Z,5.40
2022-08-28T22:39:11.283Z,5.87
2022-08-28T22:41:38.715Z,5.90
2022-08-28T22:44:06.574Z,6.00
2022-08-28T22:46:33.229Z,5.33
2022-08-28T22:48:59.876Z,5.97
2022-08-28T22:51:26.513Z,5.20
2022-08-28T22:53:54.368Z,5.90
2022-08-28T22:56:21.379Z,5.63
2022-08-28T22:58:48.038Z,5.90
2022-08-28T23:01:18.322Z,5.53
2022-08-28T23:03:45.786Z,5.27
2022-08-28T23:06:13.803Z,5.43
2022-08-28T23:08:40.602Z,6.03
2022-08-28T23:11:07.546Z,5.17
2022-08-28T23:13:34.312Z,5.80
2022-08-28T23:16:01.546Z,5.63
2022-08-28T23:18:29.108Z,5.23
2022-08-28T23:20:56.750Z,5.70
2022-08-28T23:23:24.586Z,5.80
2022-08-28T23:25:51.356Z,6.23
2022-08-28T23:28:18.842Z,6.10
2022-08-28T23:30:48.629Z,5.67
2022-08-28T23:33:23.803Z,6.20
2022-08-28T23:35:51.446Z,6.77
2022-08-28T23:38:18.146Z,6.70
2022-08-28T23:40:44.872Z,6.10
2022-08-28T23:43:11.982Z,5.90
2022-08-28T23:45:40.305Z,5.43
2022-08-28T23:48:07.693Z,5.77
2022-08-28T23:50:34.700Z,5.83
2022-08-28T23:53:01.594Z,6.13
2022-08-28T23:55:28.674Z,6.40
2022-08-28T23:57:55.833Z,5.40
